Time;durP1;ratioP1;P1;durP2;ratioP2;P2;SDS_P1;SDS_P2;PMS_P1;PMS_P2;Temp;Humidity;BMP_temperature;BMP_pressure;BME280_temperature;BME280_humidity;BME280_pressure;Samples;Min_cycle;Max_cycle;Signal;HPM_P1;HPM_P2
2023/07/02 00:01:08;;;;;;;9.15;4.55;;;;;;;;;;5029231;28;20374;-58
2023/07/02 00:03:34;;;;;;;7.38;4.50;;;;;;;;;;5041038;28;20505;-58
2023/07/02 00:05:59;;;;;;;7.73;4.33;;;;;;;;;;5030401;28;20485;-58
2023/07/02 00:08:24;;;;;;;6.80;4.43;;;;;;;;;;5078074;22;20450;-58
2023/07/02 00:10:49;;;;;;;8.93;4.53;;;;;;;;;;5053267;28;20418;-58
2023/07/02 00:13:15;;;;;;;7.65;4.40;;;;;;;;;;5047696;28;20287;-57
2023/07/02 00:15:40;;;;;;;8.47;4.00;;;;;;;;;;5047375;28;20494;-57
2023/07/02 00:18:05;;;;;;;8.85;4.15;;;;;;;;;;5061044;28;20290;-57
2023/07/02 00:20:34;;;;;;;9.03;4.60;;;;;;;;;;5067364;28;20036;-57
2023/07/02 00:23:00;;;;;;;7.95;4.63;;;;;;;;;;5067307;28;20267;-57
2023/07/02 00:25:25;;;;;;;8.18;4.70;;;;;;;;;;5065870;28;20044;-56
2023/07/02 00:27:50;;;;;;;8.52;4.50;;;;;;;;;;5048747;28;20102;-58
2023/07/02 00:30:16;;;;;;;7.72;4.20;;;;;;;;;;5066765;28;20047;-57
2023/07/02 00:32:41;;;;;;;8.50;4.63;;;;;;;;;;5066121;28;20083;-57
2023/07/02 00:35:06;;;;;;;8.70;4.70;;;;;;;;;;5063619;28;20067;-57
2023/07/02 00:37:32;;;;;;;6.93;4.50;;;;;;;;;;5047397;28;20283;-56
2023/07/02 00:39:57;;;;;;;7.37;4.43;;;;;;;;;;5028643;28;20814;-56
2023/07/02 00:42:23;;;;;;;8.65;4.70;;;;;;;;;;5028879;28;20278;-56
2023/07/02 00:44:48;;;;;;;8.65;4.57;;;;;;;;;;5046996;28;20041;-58
2023/07/02 00:47:13;;;;;;;8.52;5.35;;;;;;;;;;5055168;28;20032;-57
2023/07/02 00:49:39;;;;;;;7.70;4.72;;;;;;;;;;5037244;28;20470;-56
2023/07/02 00:52:04;;;;;;;7.20;4.60;;;;;;;;;;5048517;28;20048;-56
2023/07/02 00:54:30;;;;;;;9.75;4.78;;;;;;;;;;5064061;28;20033;-57
2023/07/02 00:56:55;;;;;;;9.73;4.82;;;;;;;;;;5065652;28;20028;-57
2023/07/02 00:59:20;;;;;;;7.47;5.00;;;;;;;;;;5046497;28;20405;-58
2023/07/02 01:01:49;;;;;;;7.03;4.33;;;;;;;;;;5044148;28;20282;-56
2023/07/02 01:04:16;;;;;;;8.27;4.50;;;;;;;;;;5048343;28;20040;-56
2023/07/02 01:06:41;;;;;;;8.50;4.75;;;;;;;;;;5066466;28;20063;-56
2023/07/02 01:09:06;;;;;;;6.75;4.57;;;;;;;;;;5063402;28;20129;-57
2023/07/02 01:11:32;;;;;;;9.35;5.00;;;;;;;;;;5045881;28;20410;-56
2023/07/02 01:14:23;;;;;;;11.20;5.30;;;;;;;;;;5046048;28;20036;-56
2023/07/02 01:16:50;;;;;;;8.85;5.10;;;;;;;;;;5021821;28;20049;-57
2023/07/02 01:19:19;;;;;;;10.10;5.40;;;;;;;;;;5036871;28;20754;-56
2023/07/02 01:21:45;;;;;;;8.45;5.40;;;;;;;;;;5025830;28;20059;-57
2023/07/02 01:24:10;;;;;;;8.10;5.00;;;;;;;;;;5047471;28;20098;-56
2023/07/02 01:26:36;;;;;;;8.90;5.20;;;;;;;;;;5064485;28;20020;-57
2023/07/02 01:29:15;;;;;;;7.32;4.88;;;;;;;;;;5050613;28;20445;-56
2023/07/02 01:31:40;;;;;;;8.73;5.15;;;;;;;;;;5053606;28;20153;-58
2023/07/02 01:34:07;;;;;;;8.33;5.10;;;;;;;;;;5051647;28;20626;-56
2023/07/02 01:36:32;;;;;;;8.48;4.85;;;;;;;;;;5066296;28;20320;-56
2023/07/02 01:38:58;;;;;;;8.90;5.07;;;;;;;;;;5052382;28;20041;-56
2023/07/02 01:41:23;;;;;;;7.07;4.45;;;;;;;;;;5046115;28;20278;-57
2023/07/02 01:43:48;;;;;;;8.97;5.23;;;;;;;;;;5046342;28;20068;-57
2023/07/02 01:46:14;;;;;;;9.23;4.70;;;;;;;;;;5046375;28;20160;-57
2023/07/02 01:48:39;;;;;;;8.73;5.07;;;;;;;;;;5046435;28;20641;-56
2023/07/02 01:51:04;;;;;;;6.75;5.13;;;;;;;;;;5046339;28;20029;-57
2023/07/02 01:53:29;;;;;;;11.00;5.30;;;;;;;;;;5045825;28;20405;-57
2023/07/02 01:55:55;;;;;;;7.60;4.77;;;;;;;;;;5063911;28;20357;-57
2023/07/02 01:58:20;;;;;;;8.67;5.30;;;;;;;;;;5065931;28;20277;-58
2023/07/02 02:00:46;;;;;;;9.38;4.78;;;;;;;;;;5057116;28;20321;-57
2023/07/02 02:03:11;;;;;;;8.10;4.77;;;;;;;;;;5045828;28;20440;-56
2023/07/02 02:05:36;;;;;;;8.00;4.80;;;;;;;;;;5045866;28;20388;-57
2023/07/02 02:08:02;;;;;;;8.73;4.60;;;;;;;;;;5050495;28;20271;-56
2023/07/02 02:10:27;;;;;;;9.43;4.80;;;;;;;;;;5061401;28;20090;-56
2023/07/02 02:12:52;;;;;;;8.13;4.65;;;;;;;;;;5044669;28;20124;-57
2023/07/02 02:15:17;;;;;;;8.65;4.78;;;;;;;;;;5045628;28;20546;-57
2023/07/02 02:17:43;;;;;;;8.57;4.93;;;;;;;;;;5045764;28;20035;-58
2023/07/02 02:20:08;;;;;;;7.60;5.00;;;;;;;;;;5045433;28;20283;-57
2023/07/02 02:22:34;;;;;;;10.80;5.22;;;;;;;;;;5031290;28;20287;-57
2023/07/02 02:24:59;;;;;;;8.80;5.40;;;;;;;;;;5064583;28;20078;-57
2023/07/02 02:27:24;;;;;;;8.83;5.50;;;;;;;;;;5065408;28;20024;-57
2023/07/02 02:29:49;;;;;;;7.53;4.97;;;;;;;;;;5064143;28;20275;-57
2023/07/02 02:32:17;;;;;;;7.03;4.53;;;;;;;;;;5064957;28;20048;-57
2023/07/02 02:34:42;;;;;;;8.48;5.05;;;;;;;;;;5064232;28;20032;-56
2023/07/02 02:37:08;;;;;;;8.73;5.35;;;;;;;;;;5065074;28;20025;-56
2023/07/02 02:39:33;;;;;;;10.27;4.88;;;;;;;;;;5063280;28;20032;-56
2023/07/02 02:41:58;;;;;;;7.50;4.87;;;;;;;;;;5064909;28;20543;-57
2023/07/02 02:44:23;;;;;;;9.67;5.47;;;;;;;;;;5064805;28;20262;-56
2023/07/02 02:46:49;;;;;;;9.20;4.60;;;;;;;;;;5049085;28;20328;-57
2023/07/02 02:49:14;;;;;;;10.40;5.07;;;;;;;;;;5057933;28;20036;-57
2023/07/02 02:51:40;;;;;;;10.00;4.97;;;;;;;;;;5064397;28;20195;-56
2023/07/02 02:54:05;;;;;;;7.55;5.00;;;;;;;;;;5045901;28;20016;-57
2023/07/02 02:56:30;;;;;;;8.63;5.13;;;;;;;;;;5064587;28;20025;-57
2023/07/02 02:58:56;;;;;;;11.13;4.93;;;;;;;;;;5053902;28;20288;-56
2023/07/02 03:01:21;;;;;;;10.87;5.37;;;;;;;;;;5022113;28;20268;-56
2023/07/02 03:03:46;;;;;;;8.77;5.37;;;;;;;;;;5044694;28;20307;-57
2023/07/02 03:06:12;;;;;;;10.20;5.37;;;;;;;;;;5043576;28;20078;-57
2023/07/02 03:08:38;;;;;;;7.65;4.78;;;;;;;;;;5051925;28;20033;-56
2023/07/02 03:11:04;;;;;;;10.60;4.50;;;;;;;;;;5048203;28;20044;-56
2023/07/02 03:13:29;;;;;;;9.90;5.30;;;;;;;;;;5064145;28;20040;-56
2023/07/02 03:15:54;;;;;;;7.97;5.03;;;;;;;;;;5064994;28;20028;-57
2023/07/02 03:18:19;;;;;;;8.70;4.27;;;;;;;;;;5042262;28;20021;-56
2023/07/02 03:20:44;;;;;;;9.05;5.05;;;;;;;;;;5064152;28;20043;-56
2023/07/02 03:23:10;;;;;;;7.80;4.53;;;;;;;;;;5064491;28;20554;-56
2023/07/02 03:25:35;;;;;;;9.20;5.03;;;;;;;;;;5079377;28;20666;-56
2023/07/02 03:28:00;;;;;;;9.17;4.80;;;;;;;;;;5086239;28;20375;-56
2023/07/02 03:30:25;;;;;;;10.27;4.93;;;;;;;;;;5068240;28;20155;-56
2023/07/02 03:32:51;;;;;;;8.33;4.83;;;;;;;;;;5068148;28;20067;-57
2023/07/02 03:35:16;;;;;;;8.90;5.07;;;;;;;;;;5067953;28;20107;-56
2023/07/02 03:37:43;;;;;;;7.30;4.73;;;;;;;;;;5068337;28;20025;-56
2023/07/02 03:40:09;;;;;;;8.55;5.03;;;;;;;;;;5065813;28;20033;-57
2023/07/02 03:42:34;;;;;;;8.45;5.13;;;;;;;;;;5050274;28;20127;-56
2023/07/02 03:44:59;;;;;;;12.27;5.87;;;;;;;;;;5067259;28;20566;-56
2023/07/02 03:47:24;;;;;;;8.87;4.50;;;;;;;;;;5068210;28;20556;-56
2023/07/02 03:49:50;;;;;;;8.73;4.97;;;;;;;;;;5066625;28;20576;-56
2023/07/02 03:52:15;;;;;;;9.50;5.55;;;;;;;;;;5056890;28;20971;-56
2023/07/02 03:54:41;;;;;;;9.43;5.18;;;;;;;;;;5066618;28;20492;-57
2023/07/02 03:57:06;;;;;;;8.03;4.73;;;;;;;;;;5060731;28;20033;-56
2023/07/02 03:59:31;;;;;;;9.13;5.30;;;;;;;;;;5060829;28;20441;-56
2023/07/02 04:01:56;;;;;;;9.73;5.37;;;;;;;;;;5052789;28;20409;-57
2023/07/02 04:04:22;;;;;;;8.93;5.23;;;;;;;;;;5048224;28;20287;-56
2023/07/02 04:06:47;;;;;;;10.03;5.43;;;;;;;;;;5031864;28;20290;-57
2023/07/02 04:09:12;;;;;;;8.93;5.65;;;;;;;;;;5051481;28;20797;-57
2023/07/02 04:11:38;;;;;;;9.32;5.53;;;;;;;;;;5054313;28;20092;-57
2023/07/02 04:14:03;;;;;;;8.03;4.87;;;;;;;;;;5029789;28;20040;-56
2023/07/02 04:16:28;;;;;;;9.47;4.73;;;;;;;;;;5039801;28;20731;-55
2023/07/02 04:18:53;;;;;;;11.27;5.70;;;;;;;;;;5048269;28;20494;-57
2023/07/02 04:21:18;;;;;;;9.20;5.17;;;;;;;;;;5063944;28;20037;-57
2023/07/02 04:23:44;;;;;;;8.63;5.30;;;;;;;;;;5029707;28;20425;-56
2023/07/02 04:26:10;;;;;;;9.00;5.63;;;;;;;;;;5042117;28;20425;-57
2023/07/02 04:28:35;;;;;;;8.90;5.43;;;;;;;;;;5046281;28;20035;-57
2023/07/02 04:31:00;;;;;;;6.80;4.93;;;;;;;;;;5047422;28;20413;-57
2023/07/02 04:33:25;;;;;;;9.47;5.53;;;;;;;;;;5047330;28;20789;-56
2023/07/02 04:35:50;;;;;;;7.70;5.10;;;;;;;;;;5065331;28;20041;-56
2023/07/02 04:38:16;;;;;;;9.17;5.43;;;;;;;;;;5067048;28;20037;-57
2023/07/02 04:40:44;;;;;;;10.85;5.47;;;;;;;;;;5045695;28;20047;-57
2023/07/02 04:43:09;;;;;;;8.50;4.95;;;;;;;;;;5029304;28;20052;-56
2023/07/02 04:45:36;;;;;;;8.90;5.13;;;;;;;;;;5047560;28;20514;-57
2023/07/02 04:48:01;;;;;;;10.60;4.88;;;;;;;;;;5052719;28;20035;-57
2023/07/02 04:50:26;;;;;;;9.33;5.20;;;;;;;;;;5038991;28;20033;-57
2023/07/02 04:52:51;;;;;;;7.20;4.50;;;;;;;;;;5062573;28;20295;-57
2023/07/02 04:55:16;;;;;;;9.13;4.87;;;;;;;;;;5065427;28;20110;-56
2023/07/02 04:57:44;;;;;;;9.77;5.30;;;;;;;;;;5066082;28;20790;-57
2023/07/02 05:00:09;;;;;;;9.00;4.95;;;;;;;;;;5062652;28;20826;-59
2023/07/02 05:02:34;;;;;;;8.13;4.78;;;;;;;;;;5061232;28;20064;-57
2023/07/02 05:05:00;;;;;;;8.68;5.10;;;;;;;;;;5065580;28;20467;-56
2023/07/02 05:07:25;;;;;;;8.27;5.40;;;;;;;;;;5065353;28;20455;-57
2023/07/02 05:09:52;;;;;;;8.80;5.10;;;;;;;;;;5065661;28;20510;-59
2023/07/02 05:12:17;;;;;;;11.38;5.28;;;;;;;;;;5062834;28;20058;-58
2023/07/02 05:14:42;;;;;;;9.50;5.13;;;;;;;;;;5064077;28;20033;-58
2023/07/02 05:17:08;;;;;;;9.07;5.00;;;;;;;;;;5045279;28;20075;-58
2023/07/02 05:19:33;;;;;;;12.40;5.00;;;;;;;;;;5048010;28;20275;-58
2023/07/02 05:21:58;;;;;;;8.37;5.30;;;;;;;;;;5061783;28;20744;-58
2023/07/02 05:24:23;;;;;;;8.43;5.32;;;;;;;;;;5064836;28;20406;-59
2023/07/02 05:26:50;;;;;;;8.37;5.10;;;;;;;;;;5064220;28;20032;-58
2023/07/02 05:29:16;;;;;;;11.93;5.85;;;;;;;;;;5049021;28;20275;-58
2023/07/02 05:31:41;;;;;;;9.85;5.63;;;;;;;;;;5063051;28;20044;-55
2023/07/02 05:34:07;;;;;;;11.57;5.80;;;;;;;;;;5058641;28;20043;-57
2023/07/02 05:36:32;;;;;;;9.57;5.75;;;;;;;;;;5053532;28;20045;-56
2023/07/02 05:38:57;;;;;;;10.53;6.03;;;;;;;;;;5046506;28;20040;-56
2023/07/02 05:41:22;;;;;;;13.40;6.20;;;;;;;;;;5040681;28;20060;-58
2023/07/02 05:43:48;;;;;;;10.25;6.45;;;;;;;;;;5046809;28;20363;-57
2023/07/02 05:46:14;;;;;;;11.23;5.22;;;;;;;;;;5043778;28;20049;-58
2023/07/02 05:48:39;;;;;;;11.95;5.93;;;;;;;;;;5046820;28;20029;-58
2023/07/02 05:51:04;;;;;;;10.43;5.50;;;;;;;;;;5046195;28;20063;-56
2023/07/02 05:53:29;;;;;;;10.10;5.63;;;;;;;;;;5045387;28;20136;-56
2023/07/02 05:55:55;;;;;;;9.17;5.80;;;;;;;;;;5038794;28;20290;-60
2023/07/02 05:58:20;;;;;;;11.40;6.03;;;;;;;;;;5046273;28;20040;-58
2023/07/02 06:00:49;;;;;;;11.73;6.53;;;;;;;;;;5048779;28;20044;-56
2023/07/02 06:03:19;;;;;;;9.82;5.97;;;;;;;;;;5033235;28;20055;-57
2023/07/02 06:05:44;;;;;;;;;;;;;;;;;;5057950;28;20032;-57
2023/07/02 06:08:09;;;;;;;12.82;6.47;;;;;;;;;;5065641;28;19985;-57
2023/07/02 06:10:34;;;;;;;11.43;6.17;;;;;;;;;;5064799;28;20043;-57
2023/07/02 06:12:59;;;;;;;11.53;6.47;;;;;;;;;;5045489;28;20037;-57
2023/07/02 06:15:24;;;;;;;11.87;6.60;;;;;;;;;;5060660;28;20271;-57
2023/07/02 06:17:50;;;;;;;9.70;5.93;;;;;;;;;;5064679;28;20063;-57
2023/07/02 06:20:15;;;;;;;12.90;6.30;;;;;;;;;;5063065;28;20294;-57
2023/07/02 06:22:42;;;;;;;10.60;6.25;;;;;;;;;;5062969;28;20044;-57
2023/07/02 06:25:07;;;;;;;9.45;5.93;;;;;;;;;;5061350;28;20029;-57
2023/07/02 06:27:32;;;;;;;9.07;6.10;;;;;;;;;;5063603;28;20047;-56
2023/07/02 06:29:57;;;;;;;9.40;5.83;;;;;;;;;;5065004;28;20380;-57
2023/07/02 06:32:23;;;;;;;9.90;6.50;;;;;;;;;;5061451;28;20135;-58
2023/07/02 06:34:48;;;;;;;12.55;6.03;;;;;;;;;;5062600;28;20058;-57
2023/07/02 06:37:13;;;;;;;10.70;6.20;;;;;;;;;;5059989;28;20124;-58
2023/07/02 06:39:39;;;;;;;11.37;5.67;;;;;;;;;;5057404;28;20453;-58
2023/07/02 06:42:04;;;;;;;10.70;5.80;;;;;;;;;;5062642;28;20497;-57
2023/07/02 06:44:29;;;;;;;11.38;5.85;;;;;;;;;;5063840;28;20032;-57
2023/07/02 06:46:54;;;;;;;9.90;5.53;;;;;;;;;;5062592;28;20477;-60
2023/07/02 06:49:20;;;;;;;9.98;5.57;;;;;;;;;;5064603;28;20036;-58
2023/07/02 06:51:46;;;;;;;11.38;6.28;;;;;;;;;;5065014;28;20044;-59
2023/07/02 06:54:13;;;;;;;11.97;6.27;;;;;;;;;;5065446;28;20059;-57
2023/07/02 06:56:38;;;;;;;12.18;5.93;;;;;;;;;;5064065;28;20417;-57
2023/07/02 06:59:03;;;;;;;10.67;5.80;;;;;;;;;;5061981;28;20043;-56
2023/07/02 07:01:28;;;;;;;10.00;5.95;;;;;;;;;;5037486;28;20163;-59
2023/07/02 07:03:54;;;;;;;12.20;6.45;;;;;;;;;;5047990;28;20035;-56
2023/07/02 07:06:19;;;;;;;8.93;5.63;;;;;;;;;;5063650;28;20084;-55
2023/07/02 07:08:45;;;;;;;10.63;5.97;;;;;;;;;;5062230;28;20048;-58
2023/07/02 07:11:10;;;;;;;11.03;6.43;;;;;;;;;;5047702;28;20062;-58
2023/07/02 07:13:35;;;;;;;10.60;5.63;;;;;;;;;;5055175;28;20299;-58
2023/07/02 07:16:00;;;;;;;10.30;6.97;;;;;;;;;;5049232;28;20711;-58
2023/07/02 07:18:26;;;;;;;10.40;6.23;;;;;;;;;;5064039;28;20484;-58
2023/07/02 07:20:52;;;;;;;12.90;6.63;;;;;;;;;;5064579;28;20382;-58
2023/07/02 07:23:17;;;;;;;11.57;6.40;;;;;;;;;;5064586;28;20285;-58
2023/07/02 07:25:43;;;;;;;11.80;6.17;;;;;;;;;;5042821;28;20041;-58
2023/07/02 07:28:11;;;;;;;9.87;5.77;;;;;;;;;;5064933;28;20291;-57
2023/07/02 07:30:37;;;;;;;8.27;5.80;;;;;;;;;;5045770;28;20488;-58
2023/07/02 07:33:02;;;;;;;8.98;5.10;;;;;;;;;;5062628;28;20044;-58
2023/07/02 07:35:27;;;;;;;8.82;5.53;;;;;;;;;;5062814;28;20051;-57
2023/07/02 07:37:53;;;;;;;8.93;5.80;;;;;;;;;;5066128;28;20059;-57
2023/07/02 07:40:18;;;;;;;9.77;5.10;;;;;;;;;;5064308;28;20032;-57
2023/07/02 07:42:43;;;;;;;9.50;5.75;;;;;;;;;;5028687;28;20037;-58
2023/07/02 07:45:09;;;;;;;10.52;5.43;;;;;;;;;;5054195;28;20042;-58
2023/07/02 07:47:35;;;;;;;10.13;5.53;;;;;;;;;;5063107;28;20067;-57
2023/07/02 07:50:00;;;;;;;8.67;5.73;;;;;;;;;;5048083;28;20068;-57
2023/07/02 07:52:25;;;;;;;9.93;5.47;;;;;;;;;;5046286;28;20052;-57
2023/07/02 07:54:50;;;;;;;9.27;6.20;;;;;;;;;;5063125;28;22514;-57
2023/07/02 07:57:16;;;;;;;11.70;5.77;;;;;;;;;;5063866;28;20345;-57
2023/07/02 07:59:41;;;;;;;11.27;6.57;;;;;;;;;;5064278;28;20284;-57
2023/07/02 08:02:06;;;;;;;12.67;7.10;;;;;;;;;;5063868;28;20340;-58
2023/07/02 08:04:31;;;;;;;10.50;6.27;;;;;;;;;;5057880;28;20037;-56
2023/07/02 08:06:56;;;;;;;9.65;5.78;;;;;;;;;;5057424;28;20873;-57
2023/07/02 08:09:22;;;;;;;10.17;5.80;;;;;;;;;;5046535;28;20086;-57
2023/07/02 08:11:48;;;;;;;9.05;6.00;;;;;;;;;;5059469;28;20866;-57
2023/07/02 08:14:13;;;;;;;9.15;6.13;;;;;;;;;;5047583;28;20072;-57
2023/07/02 08:16:38;;;;;;;11.77;6.23;;;;;;;;;;5049795;28;20112;-57
2023/07/02 08:19:04;;;;;;;11.65;5.95;;;;;;;;;;5047953;28;20295;-57
2023/07/02 08:21:29;;;;;;;9.60;5.47;;;;;;;;;;5056643;28;20044;-57
2023/07/02 08:23:54;;;;;;;8.35;5.22;;;;;;;;;;5053586;28;20461;-58
2023/07/02 08:26:20;;;;;;;8.97;5.90;;;;;;;;;;5061814;28;20089;-57
2023/07/02 08:28:45;;;;;;;10.52;5.43;;;;;;;;;;5065897;28;20674;-57
2023/07/02 08:31:10;;;;;;;10.87;6.03;;;;;;;;;;5067742;28;20516;-57
2023/07/02 08:33:35;;;;;;;9.10;5.57;;;;;;;;;;5049034;28;20326;-58
2023/07/02 08:36:01;;;;;;;8.30;4.67;;;;;;;;;;5059590;28;20093;-59
2023/07/02 08:38:26;;;;;;;9.02;5.15;;;;;;;;;;5065510;28;20274;-58
2023/07/02 08:40:51;;;;;;;10.23;5.30;;;;;;;;;;5068079;28;20102;-58
2023/07/02 08:43:17;;;;;;;8.43;4.87;;;;;;;;;;5065996;28;20037;-57
2023/07/02 08:45:42;;;;;;;9.20;5.35;;;;;;;;;;5048657;28;20297;-58
2023/07/02 08:48:07;;;;;;;9.52;5.45;;;;;;;;;;5045894;28;20116;-58
2023/07/02 08:50:33;;;;;;;8.85;5.22;;;;;;;;;;5046086;28;20439;-61
2023/07/02 08:52:58;;;;;;;7.53;5.00;;;;;;;;;;5044968;28;20144;-59
2023/07/02 08:55:23;;;;;;;8.37;5.10;;;;;;;;;;5059678;28;20274;-60
2023/07/02 08:57:49;;;;;;;7.47;4.73;;;;;;;;;;5064891;28;20674;-59
2023/07/02 09:00:14;;;;;;;9.38;5.13;;;;;;;;;;5049573;28;20479;-56
2023/07/02 09:02:40;;;;;;;7.70;4.88;;;;;;;;;;5058079;28;20040;-57
2023/07/02 09:05:05;;;;;;;9.67;5.17;;;;;;;;;;5049030;28;20494;-57
2023/07/02 09:07:30;;;;;;;9.43;4.95;;;;;;;;;;5047654;28;20525;-58
2023/07/02 09:09:56;;;;;;;6.63;4.23;;;;;;;;;;5055315;28;20421;-58
2023/07/02 09:12:21;;;;;;;7.43;4.70;;;;;;;;;;5034157;28;20329;-57
2023/07/02 09:14:47;;;;;;;9.45;5.20;;;;;;;;;;5062628;28;20287;-58
2023/07/02 09:17:12;;;;;;;9.80;5.10;;;;;;;;;;5063081;28;20036;-57
2023/07/02 09:19:48;;;;;;;6.60;4.23;;;;;;;;;;5065696;28;20316;-57
2023/07/02 09:22:15;;;;;;;8.27;5.00;;;;;;;;;;5043278;28;20048;-59
2023/07/02 09:24:40;;;;;;;8.02;5.05;;;;;;;;;;5032004;28;20029;-57
2023/07/02 09:27:06;;;;;;;9.35;4.82;;;;;;;;;;5046161;28;20041;-58
2023/07/02 09:29:34;;;;;;;7.33;4.50;;;;;;;;;;5063642;28;20037;-58
2023/07/02 09:32:00;;;;;;;7.13;4.80;;;;;;;;;;5046408;28;20302;-57
2023/07/02 09:34:28;;;;;;;7.43;4.60;;;;;;;;;;5034643;28;20524;-57
2023/07/02 09:36:54;;;;;;;8.40;4.85;;;;;;;;;;5045242;28;20041;-59
2023/07/02 09:39:20;;;;;;;7.57;4.60;;;;;;;;;;5045061;28;20509;-58
2023/07/02 09:41:45;;;;;;;7.03;4.70;;;;;;;;;;5029512;28;20971;-58
2023/07/02 09:44:10;;;;;;;7.22;4.60;;;;;;;;;;5044798;28;20496;-57
2023/07/02 09:46:37;;;;;;;6.22;4.30;;;;;;;;;;5029871;28;20056;-57
2023/07/02 09:49:02;;;;;;;8.25;4.80;;;;;;;;;;5026511;28;20040;-57
2023/07/02 09:51:27;;;;;;;7.10;4.20;;;;;;;;;;5026505;28;20409;-60
2023/07/02 09:53:52;;;;;;;6.03;4.20;;;;;;;;;;5037724;28;20128;-57
2023/07/02 09:56:18;;;;;;;6.57;4.40;;;;;;;;;;5054102;28;20283;-56
2023/07/02 09:58:44;;;;;;;6.05;4.10;;;;;;;;;;5048732;28;20423;-57
2023/07/02 10:01:09;;;;;;;7.18;4.05;;;;;;;;;;5025476;28;20493;-58
2023/07/02 10:03:34;;;;;;;7.80;4.57;;;;;;;;;;5054735;28;20044;-57
2023/07/02 10:06:06;;;;;;;7.80;4.30;;;;;;;;;;5063275;28;20040;-57
2023/07/02 10:08:31;;;;;;;7.78;4.32;;;;;;;;;;5028098;28;20043;-60
2023/07/02 10:11:14;;;;;;;7.00;4.32;;;;;;;;;;5029209;28;20012;-58
2023/07/02 10:13:39;;;;;;;6.38;3.95;;;;;;;;;;5050675;28;20592;-57
2023/07/02 10:16:05;;;;;;;6.15;3.83;;;;;;;;;;5044509;28;20111;-58
2023/07/02 10:18:30;;;;;;;6.43;4.10;;;;;;;;;;5047316;28;20151;-57
2023/07/02 10:20:56;;;;;;;7.57;4.35;;;;;;;;;;5061663;28;20040;-57
2023/07/02 10:23:22;;;;;;;6.97;4.47;;;;;;;;;;5045773;28;20067;-58
2023/07/02 10:25:47;;;;;;;7.15;4.20;;;;;;;;;;5047196;28;20128;-57
2023/07/02 10:28:19;;;;;;;6.90;4.10;;;;;;;;;;5044195;28;20540;-59
2023/07/02 10:30:45;;;;;;;5.50;4.03;;;;;;;;;;5043538;28;20044;-57
2023/07/02 10:33:10;;;;;;;6.43;3.63;;;;;;;;;;5042664;28;20045;-57
2023/07/02 10:35:35;;;;;;;6.40;3.53;;;;;;;;;;5046124;28;20079;-57
2023/07/02 10:38:01;;;;;;;7.13;4.47;;;;;;;;;;5057295;28;20272;-57
2023/07/02 10:40:26;;;;;;;6.60;4.13;;;;;;;;;;5043464;28;21213;-58
2023/07/02 10:42:52;;;;;;;8.20;4.27;;;;;;;;;;5041362;28;20045;-57
2023/07/02 10:45:17;;;;;;;5.97;3.42;;;;;;;;;;5024554;28;20279;-56
2023/07/02 10:47:43;;;;;;;6.00;3.88;;;;;;;;;;5044767;28;20133;-57
2023/07/02 10:50:20;;;;;;;6.13;3.83;;;;;;;;;;5043338;28;20091;-57
2023/07/02 10:52:47;;;;;;;5.55;3.63;;;;;;;;;;5045296;28;20583;-57
2023/07/02 10:55:18;;;;;;;7.10;4.07;;;;;;;;;;5043919;28;20029;-56
2023/07/02 10:57:43;;;;;;;6.35;3.88;;;;;;;;;;5025135;28;20124;-57
2023/07/02 11:00:09;;;;;;;6.27;4.00;;;;;;;;;;5044414;28;20128;-59
2023/07/02 11:02:35;;;;;;;6.57;4.32;;;;;;;;;;5044626;28;20086;-57
2023/07/02 11:05:00;;;;;;;6.65;3.90;;;;;;;;;;5044412;28;20048;-57
2023/07/02 11:07:25;;;;;;;7.05;4.00;;;;;;;;;;5020628;28;20055;-58
2023/07/02 11:09:51;;;;;;;6.37;4.47;;;;;;;;;;5060930;28;20040;-57
2023/07/02 11:12:16;;;;;;;6.78;4.00;;;;;;;;;;5061576;28;20047;-58
2023/07/02 11:14:42;;;;;;;7.22;4.57;;;;;;;;;;5050939;28;20516;-57
2023/07/02 11:17:07;;;;;;;7.20;4.50;;;;;;;;;;5023906;28;20029;-57
2023/07/02 11:19:32;;;;;;;6.03;4.33;;;;;;;;;;5058328;28;20106;-57
2023/07/02 11:21:58;;;;;;;6.07;4.28;;;;;;;;;;5063085;28;20659;-57
2023/07/02 11:24:27;;;;;;;6.90;3.92;;;;;;;;;;5051801;28;20827;-58
2023/07/02 11:26:52;;;;;;;7.35;4.25;;;;;;;;;;5043388;28;20035;-56
2023/07/02 11:29:20;;;;;;;6.80;3.87;;;;;;;;;;5036186;28;20053;-57
2023/07/02 11:31:45;;;;;;;6.63;3.97;;;;;;;;;;5042315;28;20041;-58
2023/07/02 11:34:14;;;;;;;6.30;3.57;;;;;;;;;;5051427;28;20417;-57
2023/07/02 11:36:40;;;;;;;6.93;3.92;;;;;;;;;;5043508;28;20349;-57
2023/07/02 11:39:05;;;;;;;5.60;3.83;;;;;;;;;;5044225;28;20827;-57
2023/07/02 11:41:37;;;;;;;5.28;3.45;;;;;;;;;;5046625;28;20461;-57
2023/07/02 11:44:02;;;;;;;5.43;3.65;;;;;;;;;;5042076;28;20085;-58
2023/07/02 11:46:28;;;;;;;7.77;3.70;;;;;;;;;;5051261;28;20124;-57
2023/07/02 11:48:53;;;;;;;6.13;4.03;;;;;;;;;;5036889;28;20874;-56
2023/07/02 11:51:18;;;;;;;6.07;3.87;;;;;;;;;;5050016;28;20292;-57
2023/07/02 11:53:44;;;;;;;7.23;3.70;;;;;;;;;;5071365;28;20299;-58
2023/07/02 11:56:09;;;;;;;6.75;3.85;;;;;;;;;;5054923;28;20123;-58
2023/07/02 11:58:34;;;;;;;6.68;3.50;;;;;;;;;;5048963;28;20528;-58
2023/07/02 12:00:59;;;;;;;6.03;3.35;;;;;;;;;;5051956;28;20514;-58
2023/07/02 12:03:25;;;;;;;6.40;3.50;;;;;;;;;;5066015;28;20032;-57
2023/07/02 12:05:50;;;;;;;5.37;3.27;;;;;;;;;;5036496;28;21333;-59
2023/07/02 12:08:16;;;;;;;5.65;3.08;;;;;;;;;;5066218;28;20286;-58
2023/07/02 12:10:41;;;;;;;5.80;3.13;;;;;;;;;;5066102;28;20106;-59
2023/07/02 12:13:06;;;;;;;5.57;3.20;;;;;;;;;;5066855;28;20063;-57
2023/07/02 12:15:32;;;;;;;5.03;3.10;;;;;;;;;;5039507;28;20116;-58
2023/07/02 12:17:57;;;;;;;6.10;3.30;;;;;;;;;;5058226;28;20274;-57
2023/07/02 12:20:22;;;;;;;5.33;3.00;;;;;;;;;;5065934;28;20310;-57
2023/07/02 12:22:47;;;;;;;5.57;2.70;;;;;;;;;;5044382;28;20053;-57
2023/07/02 12:25:13;;;;;;;6.45;3.00;;;;;;;;;;5047149;28;20040;-57
2023/07/02 12:27:38;;;;;;;6.15;3.42;;;;;;;;;;5059142;28;20063;-58
2023/07/02 12:30:04;;;;;;;6.38;3.42;;;;;;;;;;5065451;28;20056;-57
2023/07/02 12:32:30;;;;;;;5.40;3.20;;;;;;;;;;5065016;28;20074;-58
2023/07/02 12:34:55;;;;;;;6.40;3.50;;;;;;;;;;5055374;28;20061;-58
2023/07/02 12:37:21;;;;;;;7.70;3.65;;;;;;;;;;5046588;28;20064;-58
2023/07/02 12:39:46;;;;;;;6.57;4.20;;;;;;;;;;5065148;28;20119;-57
2023/07/02 12:42:11;;;;;;;5.20;3.67;;;;;;;;;;5065588;28;20451;-56
2023/07/02 12:44:36;;;;;;;6.15;4.28;;;;;;;;;;5058723;28;20056;-56
2023/07/02 12:47:02;;;;;;;6.80;4.03;;;;;;;;;;5054839;28;20693;-56
2023/07/02 12:49:27;;;;;;;6.03;4.32;;;;;;;;;;5027452;28;20276;-56
2023/07/02 12:51:52;;;;;;;7.40;4.10;;;;;;;;;;5045348;28;20037;-55
2023/07/02 12:54:17;;;;;;;6.73;3.87;;;;;;;;;;5059559;28;20485;-56
2023/07/02 12:56:43;;;;;;;7.17;4.30;;;;;;;;;;5051899;28;20069;-56
2023/07/02 12:59:08;;;;;;;7.30;4.20;;;;;;;;;;5044945;28;20033;-56
2023/07/02 13:01:33;;;;;;;6.43;4.20;;;;;;;;;;5049044;28;20275;-55
2023/07/02 13:03:59;;;;;;;7.27;4.47;;;;;;;;;;5071348;22;20338;-57
2023/07/02 13:06:24;;;;;;;6.35;4.30;;;;;;;;;;5038764;28;20306;-59
2023/07/02 13:08:50;;;;;;;7.45;4.35;;;;;;;;;;5044005;28;20459;-59
2023/07/02 13:11:15;;;;;;;6.13;4.10;;;;;;;;;;5028731;28;20029;-57
2023/07/02 13:13:40;;;;;;;5.70;4.00;;;;;;;;;;5031324;28;20064;-59
2023/07/02 13:16:06;;;;;;;7.13;3.53;;;;;;;;;;5026494;28;20044;-58
2023/07/02 13:18:31;;;;;;;6.32;4.18;;;;;;;;;;5043475;28;20430;-57
2023/07/02 13:20:56;;;;;;;5.47;3.47;;;;;;;;;;5046134;28;20136;-58
2023/07/02 13:23:21;;;;;;;7.85;4.50;;;;;;;;;;5061030;22;20868;-57
2023/07/02 13:25:47;;;;;;;6.57;4.03;;;;;;;;;;5045159;28;20036;-57
2023/07/02 13:28:12;;;;;;;6.13;3.87;;;;;;;;;;5057238;28;20813;-56
2023/07/02 13:30:37;;;;;;;6.67;3.93;;;;;;;;;;5064663;28;20893;-57
2023/07/02 13:33:03;;;;;;;7.70;4.18;;;;;;;;;;5064521;28;20525;-56
2023/07/02 13:35:28;;;;;;;5.80;4.07;;;;;;;;;;5058560;28;20036;-57
2023/07/02 13:37:53;;;;;;;6.27;4.23;;;;;;;;;;5053506;28;20663;-58
2023/07/02 13:40:19;;;;;;;6.15;3.83;;;;;;;;;;5064180;28;20097;-58
2023/07/02 13:42:44;;;;;;;6.10;4.03;;;;;;;;;;5046714;28;20037;-60
2023/07/02 13:45:09;;;;;;;7.43;3.97;;;;;;;;;;5058638;28;20090;-57
2023/07/02 13:47:35;;;;;;;6.63;4.38;;;;;;;;;;5046259;28;20032;-59
2023/07/02 13:50:00;;;;;;;7.53;4.65;;;;;;;;;;5027349;28;20033;-59
2023/07/02 13:52:26;;;;;;;6.85;4.05;;;;;;;;;;5047689;28;20057;-59
2023/07/02 13:54:51;;;;;;;8.37;4.77;;;;;;;;;;5062218;28;20122;-58
2023/07/02 13:57:16;;;;;;;7.83;4.30;;;;;;;;;;5047633;28;20068;-58
2023/07/02 13:59:41;;;;;;;5.83;4.03;;;;;;;;;;5051386;28;20371;-57
2023/07/02 14:02:07;;;;;;;6.53;4.77;;;;;;;;;;5030306;28;20291;-57
2023/07/02 14:04:32;;;;;;;7.25;4.30;;;;;;;;;;5031346;28;20041;-57
2023/07/02 14:06:57;;;;;;;7.65;4.13;;;;;;;;;;5048507;28;20907;-58
2023/07/02 14:09:23;;;;;;;6.63;4.13;;;;;;;;;;5047569;28;20524;-56
2023/07/02 14:11:48;;;;;;;7.47;4.17;;;;;;;;;;5047356;28;20345;-59
2023/07/02 14:14:13;;;;;;;6.43;3.93;;;;;;;;;;5046061;28;20385;-58
2023/07/02 14:16:38;;;;;;;8.97;4.63;;;;;;;;;;5046820;28;20657;-59
2023/07/02 14:19:04;;;;;;;8.75;4.55;;;;;;;;;;5036624;28;20437;-58
2023/07/02 14:21:29;;;;;;;6.45;4.53;;;;;;;;;;5047253;28;20024;-58
2023/07/02 14:23:54;;;;;;;9.57;5.50;;;;;;;;;;5048603;28;20072;-58
2023/07/02 14:26:20;;;;;;;8.85;5.55;;;;;;;;;;5046979;28;20646;-58
2023/07/02 14:28:45;;;;;;;8.77;5.43;;;;;;;;;;5031517;28;20500;-58
2023/07/02 14:31:10;;;;;;;11.40;6.03;;;;;;;;;;5036889;28;20818;-57